Terminal Aerodrome Forecast
Issued by NWS

Home | Current Version | Previous Version | Text Only | Print | Product List | Glossary On
Versions: 1 2 3 4 5 6 7 8 9 10 11 12 13
680
FTUS46 KLOX 070535
TAFOXR
TAF
KOXR 070535Z 0706/0806 VRB05KT P6SM SKC
     FM070800 06007KT P6SM SKC WS010/04030KT
     FM071600 07014G22KT P6SM SKC
     FM072300 29010KT P6SM SKC=

USA.gov is the U.S. government's official web portal to all federal, state and local government web resources and services.